Time;durP1;ratioP1;P1;durP2;ratioP2;P2;SDS_P1;SDS_P2;PMS_P1;PMS_P2;Temp;Humidity;BMP_temperature;BMP_pressure;BME280_temperature;BME280_humidity;BME280_pressure;Samples;Min_cycle;Max_cycle;Signal;HPM_P1;HPM_P2
2022/07/23 00:01:01;;;;;;;3.75;2.90;;;;;;;;;;5112470;28;20058;-66
2022/07/23 00:03:28;;;;;;;5.00;2.65;;;;;;;;;;5114218;27;20060;-65
2022/07/23 00:05:54;;;;;;;5.05;3.22;;;;;;;;;;5113715;27;20068;-67
2022/07/23 00:08:20;;;;;;;3.08;2.78;;;;;;;;;;5113589;27;20056;-66
2022/07/23 00:10:47;;;;;;;7.43;3.10;;;;;;;;;;5115456;27;20452;-66
2022/07/23 00:13:13;;;;;;;4.03;2.80;;;;;;;;;;5110330;27;20150;-67
2022/07/23 00:15:39;;;;;;;4.43;3.47;;;;;;;;;;5101926;28;20052;-67
2022/07/23 00:18:06;;;;;;;4.30;3.35;;;;;;;;;;5112973;28;20135;-66
2022/07/23 00:20:32;;;;;;;6.03;3.25;;;;;;;;;;5111424;27;20052;-66
2022/07/23 00:22:58;;;;;;;3.20;2.90;;;;;;;;;;5113426;28;20058;-66
2022/07/23 00:25:26;;;;;;;4.40;3.45;;;;;;;;;;5113861;27;20044;-66
2022/07/23 00:27:56;;;;;;;7.72;3.35;;;;;;;;;;5114572;27;20056;-65
2022/07/23 00:30:22;;;;;;;4.97;3.22;;;;;;;;;;5114614;27;20054;-66
2022/07/23 00:32:49;;;;;;;4.82;3.03;;;;;;;;;;5113958;27;20048;-66
2022/07/23 00:35:25;;;;;;;3.72;3.28;;;;;;;;;;5114838;28;20105;-66
2022/07/23 00:37:51;;;;;;;4.75;3.22;;;;;;;;;;5114321;27;20123;-66
2022/07/23 00:40:18;;;;;;;6.82;3.67;;;;;;;;;;5113745;27;20139;-66
2022/07/23 00:42:44;;;;;;;3.85;3.30;;;;;;;;;;5113792;27;20440;-66
2022/07/23 00:45:10;;;;;;;3.92;3.00;;;;;;;;;;5112752;27;20048;-67
2022/07/23 00:47:37;;;;;;;8.05;3.50;;;;;;;;;;5112754;27;20104;-66
2022/07/23 00:50:04;;;;;;;4.38;3.10;;;;;;;;;;5111375;28;20491;-66
2022/07/23 00:52:31;;;;;;;5.68;3.35;;;;;;;;;;5111778;27;20056;-66
2022/07/23 00:54:57;;;;;;;3.97;2.80;;;;;;;;;;5111990;27;20052;-67
2022/07/23 00:57:24;;;;;;;3.00;2.72;;;;;;;;;;5112745;27;20044;-66
2022/07/23 00:59:54;;;;;;;5.05;3.55;;;;;;;;;;5112035;27;20082;-67
2022/07/23 01:02:20;;;;;;;6.32;3.30;;;;;;;;;;5113235;27;20142;-67
2022/07/23 01:04:47;;;;;;;8.15;3.20;;;;;;;;;;5112607;27;20075;-66
2022/07/23 01:07:13;;;;;;;6.15;3.42;;;;;;;;;;5110934;27;21357;-66
2022/07/23 01:09:40;;;;;;;6.25;3.22;;;;;;;;;;5111535;28;20139;-66
2022/07/23 01:12:06;;;;;;;10.50;2.88;;;;;;;;;;5112225;28;20062;-66
2022/07/23 01:14:33;;;;;;;5.18;3.35;;;;;;;;;;5111566;28;20056;-66
2022/07/23 01:16:59;;;;;;;5.80;3.45;;;;;;;;;;5112105;28;20048;-67
2022/07/23 01:19:25;;;;;;;4.32;3.30;;;;;;;;;;5110597;28;20109;-66
2022/07/23 01:21:53;;;;;;;4.55;3.22;;;;;;;;;;5111326;28;20051;-66
2022/07/23 01:24:19;;;;;;;7.05;3.30;;;;;;;;;;5111967;27;20048;-66
2022/07/23 01:26:46;;;;;;;4.07;3.20;;;;;;;;;;5111147;27;20258;-66
2022/07/23 01:29:13;;;;;;;5.80;3.17;;;;;;;;;;5101618;28;20056;-65
2022/07/23 01:31:40;;;;;;;4.60;3.67;;;;;;;;;;5112416;28;20044;-66
2022/07/23 01:34:07;;;;;;;4.00;3.00;;;;;;;;;;5112877;27;20056;-67
2022/07/23 01:36:34;;;;;;;4.05;3.38;;;;;;;;;;5111801;27;20048;-66
2022/07/23 01:39:00;;;;;;;5.72;4.47;;;;;;;;;;5112150;27;20513;-66
2022/07/23 01:41:27;;;;;;;5.78;4.38;;;;;;;;;;5111219;28;20052;-67
2022/07/23 01:43:54;;;;;;;4.38;3.75;;;;;;;;;;5109880;27;20642;-67
2022/07/23 01:46:20;;;;;;;5.40;3.95;;;;;;;;;;5111782;28;20052;-66
2022/07/23 01:48:46;;;;;;;7.18;4.30;;;;;;;;;;5109905;28;20056;-66
2022/07/23 01:51:13;;;;;;;8.60;4.18;;;;;;;;;;5111988;27;20546;-66
2022/07/23 01:53:39;;;;;;;5.57;4.40;;;;;;;;;;5112512;28;20496;-67
2022/07/23 01:56:06;;;;;;;6.43;4.50;;;;;;;;;;5111193;28;20050;-66
2022/07/23 01:58:32;;;;;;;5.85;4.35;;;;;;;;;;5108762;27;20052;-66
2022/07/23 02:00:58;;;;;;;6.28;5.28;;;;;;;;;;5111206;28;20048;-67
2022/07/23 02:03:25;;;;;;;6.70;4.85;;;;;;;;;;5110343;27;20056;-67
2022/07/23 02:05:51;;;;;;;5.88;4.90;;;;;;;;;;5111707;27;20059;-66
2022/07/23 02:08:17;;;;;;;6.03;5.20;;;;;;;;;;5112393;27;20175;-66
2022/07/23 02:10:44;;;;;;;4.93;4.47;;;;;;;;;;5111018;27;20056;-66
2022/07/23 02:13:10;;;;;;;6.13;5.32;;;;;;;;;;5107304;28;20529;-67
2022/07/23 02:15:44;;;;;;;7.00;5.25;;;;;;;;;;5110888;27;20135;-67
2022/07/23 02:18:10;;;;;;;6.38;5.10;;;;;;;;;;5110703;28;20052;-67
2022/07/23 02:20:38;;;;;;;5.85;5.10;;;;;;;;;;5110324;27;20058;-67
2022/07/23 02:23:05;;;;;;;5.25;4.68;;;;;;;;;;5111512;28;20056;-66
2022/07/23 02:25:31;;;;;;;7.70;5.32;;;;;;;;;;5111073;27;20059;-66
2022/07/23 02:27:57;;;;;;;6.10;5.43;;;;;;;;;;5111002;27;20048;-66
2022/07/23 02:30:24;;;;;;;5.65;5.03;;;;;;;;;;5111840;27;20522;-66
2022/07/23 02:32:50;;;;;;;8.60;5.38;;;;;;;;;;5099077;27;20056;-67
2022/07/23 02:35:16;;;;;;;6.35;5.38;;;;;;;;;;5111586;28;20426;-66
2022/07/23 02:37:43;;;;;;;9.07;5.30;;;;;;;;;;5111138;28;20056;-68
2022/07/23 02:40:09;;;;;;;7.30;5.07;;;;;;;;;;5111231;27;20052;-66
2022/07/23 02:42:36;;;;;;;7.20;5.57;;;;;;;;;;5111212;27;20082;-66
2022/07/23 02:45:02;;;;;;;8.27;6.13;;;;;;;;;;5110351;27;20080;-65
2022/07/23 02:47:28;;;;;;;6.75;5.95;;;;;;;;;;5105219;27;20405;-67
2022/07/23 02:49:55;;;;;;;7.60;5.65;;;;;;;;;;5109028;27;20103;-67
2022/07/23 02:52:21;;;;;;;8.07;5.65;;;;;;;;;;5111269;27;20055;-66
2022/07/23 02:54:48;;;;;;;7.22;5.70;;;;;;;;;;5111111;27;20533;-66
2022/07/23 02:57:14;;;;;;;8.18;6.00;;;;;;;;;;5114180;27;20048;-66
2022/07/23 02:59:40;;;;;;;8.63;5.93;;;;;;;;;;5110344;28;20095;-66
2022/07/23 03:02:06;;;;;;;6.00;5.22;;;;;;;;;;5110889;28;20050;-66
2022/07/23 03:04:33;;;;;;;7.05;6.18;;;;;;;;;;5099701;27;20500;-66
2022/07/23 03:06:59;;;;;;;7.38;5.85;;;;;;;;;;5115253;28;20052;-68
2022/07/23 03:09:26;;;;;;;9.57;5.57;;;;;;;;;;5114174;27;20048;-66
2022/07/23 03:11:52;;;;;;;8.73;5.88;;;;;;;;;;5114487;27;20056;-67
2022/07/23 03:14:18;;;;;;;9.07;6.22;;;;;;;;;;5111191;27;20053;-67
2022/07/23 03:16:44;;;;;;;6.50;5.57;;;;;;;;;;5113597;28;20054;-66
2022/07/23 03:19:11;;;;;;;7.90;5.95;;;;;;;;;;5114134;27;20109;-66
2022/07/23 03:21:44;;;;;;;8.70;5.65;;;;;;;;;;5114148;28;20048;-67
2022/07/23 03:24:10;;;;;;;7.57;5.70;;;;;;;;;;5115175;27;20401;-67
2022/07/23 03:26:37;;;;;;;8.73;5.55;;;;;;;;;;5114574;28;20059;-66
2022/07/23 03:29:04;;;;;;;5.95;5.20;;;;;;;;;;5112404;28;20055;-67
2022/07/23 03:31:31;;;;;;;6.80;5.55;;;;;;;;;;5114137;27;20576;-67
2022/07/23 03:33:58;;;;;;;6.07;4.90;;;;;;;;;;5114460;28;20056;-68
2022/07/23 03:36:24;;;;;;;6.78;4.78;;;;;;;;;;5114597;27;20143;-67
2022/07/23 03:38:51;;;;;;;5.35;4.85;;;;;;;;;;5113977;28;20110;-66
2022/07/23 03:41:18;;;;;;;6.15;5.40;;;;;;;;;;5113922;28;20055;-66
2022/07/23 03:43:44;;;;;;;6.00;5.07;;;;;;;;;;5113720;28;20491;-66
2022/07/23 03:46:11;;;;;;;5.53;4.95;;;;;;;;;;5112597;28;20063;-66
2022/07/23 03:48:37;;;;;;;7.63;4.65;;;;;;;;;;5108356;27;20056;-66
2022/07/23 03:51:04;;;;;;;10.02;5.07;;;;;;;;;;5105834;28;20056;-68
2022/07/23 03:53:30;;;;;;;6.75;4.90;;;;;;;;;;5113694;27;20055;-66
2022/07/23 03:55:56;;;;;;;5.45;4.90;;;;;;;;;;5113814;28;20564;-66
2022/07/23 03:58:23;;;;;;;5.95;4.93;;;;;;;;;;5114311;27;20113;-66
2022/07/23 04:00:49;;;;;;;11.30;4.78;;;;;;;;;;5111052;27;20048;-65
2022/07/23 04:03:15;;;;;;;6.60;4.93;;;;;;;;;;5110920;27;20081;-67
2022/07/23 04:05:42;;;;;;;5.47;4.72;;;;;;;;;;5111789;27;20048;-66
2022/07/23 04:08:08;;;;;;;7.55;5.00;;;;;;;;;;5112781;27;20076;-68
2022/07/23 04:10:34;;;;;;;9.43;5.50;;;;;;;;;;5113395;28;20055;-65
2022/07/23 04:13:01;;;;;;;7.13;5.03;;;;;;;;;;5115299;27;20052;-66
2022/07/23 04:15:27;;;;;;;8.77;4.82;;;;;;;;;;5114642;28;20127;-66
2022/07/23 04:17:53;;;;;;;7.10;5.18;;;;;;;;;;5114525;27;20058;-65
2022/07/23 04:20:20;;;;;;;4.85;4.35;;;;;;;;;;5114832;27;20507;-65
2022/07/23 04:22:46;;;;;;;6.00;5.00;;;;;;;;;;5115307;27;20434;-68
2022/07/23 04:25:13;;;;;;;7.10;4.82;;;;;;;;;;5113384;27;20052;-66
2022/07/23 04:27:40;;;;;;;7.15;4.93;;;;;;;;;;5113281;27;20213;-67
2022/07/23 04:30:06;;;;;;;10.60;4.97;;;;;;;;;;5113147;28;20509;-66
2022/07/23 04:32:34;;;;;;;5.57;4.68;;;;;;;;;;5112618;27;20060;-65
2022/07/23 04:35:00;;;;;;;5.75;4.57;;;;;;;;;;5113157;28;20048;-67
2022/07/23 04:37:26;;;;;;;5.88;4.47;;;;;;;;;;5112928;28;20074;-67
2022/07/23 04:39:53;;;;;;;5.85;4.85;;;;;;;;;;5113031;28;20540;-68
2022/07/23 04:42:20;;;;;;;6.07;5.18;;;;;;;;;;5112805;27;20135;-67
2022/07/23 04:44:47;;;;;;;8.45;5.50;;;;;;;;;;5113353;27;20059;-68
2022/07/23 04:47:13;;;;;;;7.03;5.00;;;;;;;;;;5111802;28;20097;-68
2022/07/23 04:49:41;;;;;;;6.53;4.88;;;;;;;;;;5111103;28;20867;-67
2022/07/23 04:52:07;;;;;;;8.13;5.50;;;;;;;;;;5112870;27;20055;-68
2022/07/23 04:54:33;;;;;;;6.13;4.90;;;;;;;;;;5109713;28;20044;-67
2022/07/23 04:57:06;;;;;;;8.18;5.32;;;;;;;;;;5109923;27;20052;-68
2022/07/23 04:59:32;;;;;;;6.20;4.82;;;;;;;;;;5112864;27;20052;-67
2022/07/23 05:01:58;;;;;;;10.80;5.63;;;;;;;;;;5109091;28;20052;-64
2022/07/23 05:04:25;;;;;;;9.50;5.30;;;;;;;;;;5108499;27;20452;-66
2022/07/23 05:06:51;;;;;;;6.32;5.00;;;;;;;;;;5108291;28;20109;-66
2022/07/23 05:09:17;;;;;;;6.70;4.68;;;;;;;;;;5110272;27;20963;-67
2022/07/23 05:11:44;;;;;;;5.85;5.22;;;;;;;;;;5095814;28;20147;-68
2022/07/23 05:14:12;;;;;;;9.80;5.57;;;;;;;;;;5111526;28;20134;-68
2022/07/23 05:16:38;;;;;;;6.47;4.78;;;;;;;;;;5111715;27;20128;-67
2022/07/23 05:19:05;;;;;;;8.00;4.70;;;;;;;;;;5112460;27;20052;-67
2022/07/23 05:21:31;;;;;;;9.73;4.95;;;;;;;;;;5112613;27;20058;-68
2022/07/23 05:23:57;;;;;;;6.43;4.97;;;;;;;;;;5112004;27;20051;-67
2022/07/23 05:26:24;;;;;;;7.35;5.18;;;;;;;;;;5110447;27;20079;-67
2022/07/23 05:28:50;;;;;;;7.88;5.38;;;;;;;;;;5103058;27;20050;-68
2022/07/23 05:31:16;;;;;;;6.68;4.80;;;;;;;;;;5111230;28;20058;-66
2022/07/23 05:33:43;;;;;;;9.38;5.07;;;;;;;;;;5111693;27;20051;-66
2022/07/23 05:36:09;;;;;;;6.50;5.15;;;;;;;;;;5102927;27;20143;-68
2022/07/23 05:38:36;;;;;;;8.30;5.25;;;;;;;;;;5108179;27;20196;-67
2022/07/23 05:41:02;;;;;;;7.50;5.20;;;;;;;;;;5111213;27;20044;-66
2022/07/23 05:43:28;;;;;;;6.95;4.90;;;;;;;;;;5111449;27;20172;-67
2022/07/23 05:45:55;;;;;;;9.02;5.40;;;;;;;;;;5111519;28;20052;-66
2022/07/23 05:48:21;;;;;;;7.32;5.35;;;;;;;;;;5112402;27;20562;-66
2022/07/23 05:50:48;;;;;;;10.50;5.28;;;;;;;;;;5111509;28;20059;-66
2022/07/23 05:53:14;;;;;;;6.20;4.60;;;;;;;;;;5112600;28;20127;-66
2022/07/23 05:55:41;;;;;;;8.15;5.40;;;;;;;;;;5110887;27;20056;-67
2022/07/23 05:58:08;;;;;;;7.72;5.15;;;;;;;;;;5111976;28;20052;-66
2022/07/23 06:00:35;;;;;;;7.70;4.97;;;;;;;;;;5099393;28;20060;-66
2022/07/23 06:03:01;;;;;;;6.25;4.80;;;;;;;;;;5103903;28;20415;-66
2022/07/23 06:05:27;;;;;;;9.05;4.07;;;;;;;;;;5104374;27;20159;-66
2022/07/23 06:07:54;;;;;;;9.07;4.30;;;;;;;;;;5111727;27;20048;-67
2022/07/23 06:10:20;;;;;;;8.32;4.32;;;;;;;;;;5093587;28;20052;-66
2022/07/23 06:12:47;;;;;;;8.05;4.45;;;;;;;;;;5106580;28;20138;-67
2022/07/23 06:15:13;;;;;;;5.95;4.13;;;;;;;;;;5112124;27;20063;-67
2022/07/23 06:17:40;;;;;;;8.88;3.85;;;;;;;;;;5112296;27;20059;-66
2022/07/23 06:20:07;;;;;;;8.02;4.70;;;;;;;;;;5109842;28;20048;-67
2022/07/23 06:22:33;;;;;;;7.20;3.97;;;;;;;;;;5110231;27;20052;-66
2022/07/23 06:24:59;;;;;;;5.97;4.30;;;;;;;;;;5111766;28;20063;-67
2022/07/23 06:27:26;;;;;;;4.15;3.45;;;;;;;;;;5111489;28;20048;-67
2022/07/23 06:29:52;;;;;;;4.00;3.25;;;;;;;;;;5110061;27;20095;-68
2022/07/23 06:32:18;;;;;;;6.53;3.88;;;;;;;;;;5106983;28;20488;-67
2022/07/23 06:34:45;;;;;;;6.63;3.40;;;;;;;;;;5107119;28;20146;-67
2022/07/23 06:37:14;;;;;;;4.47;3.30;;;;;;;;;;5115374;27;20071;-67
2022/07/23 06:39:40;;;;;;;5.45;2.60;;;;;;;;;;5112348;28;20048;-67
2022/07/23 06:42:07;;;;;;;4.03;2.70;;;;;;;;;;5114557;27;20052;-67
2022/07/23 06:44:34;;;;;;;5.15;2.00;;;;;;;;;;5110170;27;20059;-67
2022/07/23 06:47:00;;;;;;;3.97;2.13;;;;;;;;;;5105603;28;20048;-67
2022/07/23 06:49:26;;;;;;;2.53;2.20;;;;;;;;;;5111385;27;20058;-66
2022/07/23 06:51:52;;;;;;;4.07;2.47;;;;;;;;;;5112876;28;20058;-67
2022/07/23 06:54:19;;;;;;;5.32;2.60;;;;;;;;;;5112029;28;20083;-66
2022/07/23 06:56:45;;;;;;;6.38;2.60;;;;;;;;;;5113312;27;20079;-66
2022/07/23 06:59:11;;;;;;;3.13;2.25;;;;;;;;;;5114225;27;20146;-67
2022/07/23 07:01:38;;;;;;;3.55;2.03;;;;;;;;;;5114271;28;20086;-66
2022/07/23 07:04:04;;;;;;;2.72;1.50;;;;;;;;;;5115306;27;20048;-66
2022/07/23 07:06:31;;;;;;;3.15;1.65;;;;;;;;;;5114263;27;20143;-67
2022/07/23 07:08:58;;;;;;;4.97;1.92;;;;;;;;;;5111746;28;20048;-67
2022/07/23 07:11:26;;;;;;;3.70;2.22;;;;;;;;;;5114504;27;20048;-65
2022/07/23 07:13:53;;;;;;;2.17;1.98;;;;;;;;;;5110929;27;20052;-67
2022/07/23 07:16:19;;;;;;;4.32;2.30;;;;;;;;;;5106253;28;20136;-65
2022/07/23 07:18:45;;;;;;;3.60;1.83;;;;;;;;;;5107516;27;20048;-67
2022/07/23 07:21:12;;;;;;;4.68;2.35;;;;;;;;;;5106478;27;20062;-67
2022/07/23 07:23:38;;;;;;;4.43;1.83;;;;;;;;;;5109425;28;20063;-67
2022/07/23 07:26:05;;;;;;;4.05;1.73;;;;;;;;;;5107109;27;20139;-66
2022/07/23 07:28:31;;;;;;;2.03;1.50;;;;;;;;;;5110674;28;20510;-66
2022/07/23 07:30:57;;;;;;;3.78;1.88;;;;;;;;;;5114285;27;20135;-67
2022/07/23 07:33:25;;;;;;;3.38;1.48;;;;;;;;;;5114256;27;20048;-66
2022/07/23 07:35:51;;;;;;;5.47;2.15;;;;;;;;;;5115226;28;20056;-67
2022/07/23 07:38:18;;;;;;;4.75;2.15;;;;;;;;;;5113285;28;20052;-67
2022/07/23 07:40:44;;;;;;;5.97;2.17;;;;;;;;;;5113235;28;20492;-67
2022/07/23 07:43:10;;;;;;;3.85;2.03;;;;;;;;;;5113248;27;20419;-66
2022/07/23 07:45:37;;;;;;;2.40;2.00;;;;;;;;;;5113869;27;20050;-68
2022/07/23 07:48:03;;;;;;;4.18;2.38;;;;;;;;;;5114159;28;20055;-64
2022/07/23 07:50:30;;;;;;;4.70;1.80;;;;;;;;;;5112231;27;20175;-66
2022/07/23 07:52:56;;;;;;;2.70;1.35;;;;;;;;;;5098271;28;20048;-66
2022/07/23 07:55:23;;;;;;;2.97;2.13;;;;;;;;;;5095093;28;20087;-67
2022/07/23 07:57:49;;;;;;;3.53;1.80;;;;;;;;;;5112320;28;20052;-67
2022/07/23 08:00:16;;;;;;;5.43;1.77;;;;;;;;;;5108145;28;20574;-67
2022/07/23 08:02:43;;;;;;;3.90;1.95;;;;;;;;;;5113323;28;20501;-65
2022/07/23 08:05:10;;;;;;;4.85;1.80;;;;;;;;;;5113422;28;20052;-65
2022/07/23 08:07:37;;;;;;;4.32;2.00;;;;;;;;;;5113223;27;20109;-64
2022/07/23 08:10:03;;;;;;;3.03;1.75;;;;;;;;;;5112177;27;20062;-65
2022/07/23 08:12:37;;;;;;;3.70;1.80;;;;;;;;;;5114192;27;20053;-61
2022/07/23 08:15:04;;;;;;;2.63;1.83;;;;;;;;;;5114113;27;20058;-65
2022/07/23 08:17:33;;;;;;;2.58;1.83;;;;;;;;;;5113825;28;20476;-65
2022/07/23 08:19:59;;;;;;;5.65;2.17;;;;;;;;;;5112487;27;20593;-64
2022/07/23 08:22:50;;;;;;;4.15;2.13;;;;;;;;;;5094018;28;20059;-65
2022/07/23 08:25:27;;;;;;;2.65;1.50;;;;;;;;;;5107665;27;20131;-67
2022/07/23 08:27:54;;;;;;;3.55;1.20;;;;;;;;;;5114021;27;20054;-65
2022/07/23 08:30:21;;;;;;;2.95;1.42;;;;;;;;;;5109914;28;20059;-63
2022/07/23 08:33:01;;;;;;;4.82;1.88;;;;;;;;;;5112772;28;20106;-64
2022/07/23 08:35:29;;;;;;;2.28;1.65;;;;;;;;;;5110515;28;20101;-65
2022/07/23 08:37:56;;;;;;;3.67;1.73;;;;;;;;;;5112126;27;20056;-64
2022/07/23 08:40:23;;;;;;;27.02;3.55;;;;;;;;;;5113211;27;20052;-65
2022/07/23 08:42:50;;;;;;;3.28;1.67;;;;;;;;;;5112577;27;20418;-65
2022/07/23 08:45:18;;;;;;;3.13;1.73;;;;;;;;;;5111375;28;20143;-66
2022/07/23 08:47:45;;;;;;;5.15;1.55;;;;;;;;;;5108592;28;20139;-67
2022/07/23 08:50:18;;;;;;;5.90;1.58;;;;;;;;;;5107472;27;20060;-66
2022/07/23 08:52:45;;;;;;;5.65;1.33;;;;;;;;;;5113835;27;20087;-67
2022/07/23 08:55:12;;;;;;;5.93;1.45;;;;;;;;;;5109099;27;20052;-67
2022/07/23 08:57:38;;;;;;;6.00;1.60;;;;;;;;;;5113398;27;20546;-66
2022/07/23 09:00:06;;;;;;;1.55;1.00;;;;;;;;;;5112106;27;20048;-65
2022/07/23 09:02:38;;;;;;;4.32;1.77;;;;;;;;;;5111256;28;20048;-66
2022/07/23 09:05:04;;;;;;;2.20;1.70;;;;;;;;;;5113086;28;20546;-65
2022/07/23 09:07:31;;;;;;;3.97;1.67;;;;;;;;;;5111320;28;20058;-66
2022/07/23 09:10:07;;;;;;;2.67;1.30;;;;;;;;;;5113034;28;20063;-65
2022/07/23 09:12:33;;;;;;;1.20;1.10;;;;;;;;;;5112718;27;20048;-65
2022/07/23 09:15:07;;;;;;;2.17;1.23;;;;;;;;;;5111311;28;20531;-65
2022/07/23 09:17:38;;;;;;;4.88;1.60;;;;;;;;;;5103907;28;20053;-65
2022/07/23 09:20:09;;;;;;;2.55;1.50;;;;;;;;;;5101738;28;20058;-65
2022/07/23 09:22:48;;;;;;;3.55;1.50;;;;;;;;;;5113021;28;20084;-65
2022/07/23 09:25:17;;;;;;;2.80;1.38;;;;;;;;;;5110146;28;20106;-64
2022/07/23 09:27:56;;;;;;;4.00;1.48;;;;;;;;;;5113138;27;20498;-65
2022/07/23 09:30:29;;;;;;;2.55;1.25;;;;;;;;;;5112139;28;20082;-67
2022/07/23 09:33:12;;;;;;;2.92;1.50;;;;;;;;;;5112380;27;20044;-66
2022/07/23 09:35:50;;;;;;;3.80;1.50;;;;;;;;;;5112278;27;20052;-67
2022/07/23 09:38:16;;;;;;;1.65;1.10;;;;;;;;;;5110860;28;20054;-66
2022/07/23 09:40:44;;;;;;;2.67;1.40;;;;;;;;;;5111713;28;20044;-65
2022/07/23 09:43:10;;;;;;;3.75;1.27;;;;;;;;;;5111611;27;20056;-66
2022/07/23 09:45:39;;;;;;;3.63;1.40;;;;;;;;;;5112076;27;20062;-64
2022/07/23 09:48:12;;;;;;;2.63;1.30;;;;;;;;;;5101453;27;20106;-65
2022/07/23 09:50:39;;;;;;;3.85;1.23;;;;;;;;;;5111513;27;20058;-64
2022/07/23 09:53:06;;;;;;;2.33;1.20;;;;;;;;;;5111582;28;20064;-65
2022/07/23 09:55:37;;;;;;;3.22;1.35;;;;;;;;;;5109681;28;20048;-66
2022/07/23 09:58:05;;;;;;;2.70;1.40;;;;;;;;;;5109592;28;20058;-64
2022/07/23 10:00:32;;;;;;;2.08;1.08;;;;;;;;;;5111513;27;20054;-64
2022/07/23 10:02:58;;;;;;;4.10;1.30;;;;;;;;;;5110365;28;20058;-65
2022/07/23 10:05:31;;;;;;;2.08;1.17;;;;;;;;;;5108780;27;20048;-65
2022/07/23 10:07:59;;;;;;;2.25;1.38;;;;;;;;;;5107603;27;20127;-65
2022/07/23 10:10:26;;;;;;;3.97;1.52;;;;;;;;;;5108375;28;20131;-66
2022/07/23 10:15:52;;;;;;;1.85;1.17;;;;;;;;;;5071632;28;20130;-64
2022/07/23 10:18:18;;;;;;;2.90;1.40;;;;;;;;;;5107518;27;20134;-65
2022/07/23 10:20:47;;;;;;;3.38;1.33;;;;;;;;;;5109198;27;20082;-65
2022/07/23 10:23:48;;;;;;;3.20;1.52;;;;;;;;;;5111471;27;20586;-65
2022/07/23 10:26:21;;;;;;;2.90;1.27;;;;;;;;;;5077240;27;20055;-64
2022/07/23 10:28:56;;;;;;;5.00;1.52;;;;;;;;;;5110562;28;20084;-66
2022/07/23 10:31:31;;;;;;;3.65;1.20;;;;;;;;;;5103981;28;20510;-67
2022/07/23 10:34:21;;;;;;;2.42;1.40;;;;;;;;;;5110784;27;20044;-66
2022/07/23 10:36:52;;;;;;;4.45;1.17;;;;;;;;;;5110803;27;20385;-65
2022/07/23 10:39:32;;;;;;;2.85;1.20;;;;;;;;;;5107602;27;20048;-64
2022/07/23 10:42:11;;;;;;;2.75;1.27;;;;;;;;;;5103851;27;20514;-65
2022/07/23 10:44:47;;;;;;;1.70;1.20;;;;;;;;;;5108476;28;20505;-64
2022/07/23 10:50:18;;;;;;;1.27;1.00;;;;;;;;;;5107693;27;20064;-65
2022/07/23 10:53:04;;;;;;;1.90;1.20;;;;;;;;;;5109364;28;20514;-65
2022/07/23 10:55:31;;;;;;;2.60;1.17;;;;;;;;;;5108838;28;20149;-66
2022/07/23 10:57:58;;;;;;;1.20;1.10;;;;;;;;;;5110419;27;20131;-64
2022/07/23 11:00:26;;;;;;;3.05;1.30;;;;;;;;;;5109406;27;20047;-64
2022/07/23 11:02:54;;;;;;;2.53;1.20;;;;;;;;;;5109559;27;20048;-65
2022/07/23 11:05:22;;;;;;;2.00;1.08;;;;;;;;;;5109158;27;20048;-66
2022/07/23 11:08:08;;;;;;;2.88;1.52;;;;;;;;;;5106980;28;20078;-65
2022/07/23 11:10:42;;;;;;;2.83;1.10;;;;;;;;;;5106527;28;20514;-65
2022/07/23 11:13:23;;;;;;;6.25;1.73;;;;;;;;;;5109245;27;20574;-67
2022/07/23 11:16:10;;;;;;;5.45;1.45;;;;;;;;;;5108241;28;20171;-65
2022/07/23 11:18:40;;;;;;;3.30;1.60;;;;;;;;;;5114070;28;20043;-65
2022/07/23 11:21:22;;;;;;;1.60;1.30;;;;;;;;;;5111905;28;20139;-66
2022/07/23 11:24:14;;;;;;;2.88;1.25;;;;;;;;;;5112753;27;20052;-66
2022/07/23 11:26:43;;;;;;;1.90;1.40;;;;;;;;;;5107772;28;21153;-66
2022/07/23 11:29:28;;;;;;;3.90;1.52;;;;;;;;;;5109799;27;20052;-65
2022/07/23 11:31:55;;;;;;;2.25;1.50;;;;;;;;;;5103415;27;20056;-65
2022/07/23 11:34:32;;;;;;;2.00;1.25;;;;;;;;;;5116574;27;20492;-65
2022/07/23 11:36:59;;;;;;;2.08;1.20;;;;;;;;;;5114505;27;20048;-65
2022/07/23 11:39:26;;;;;;;1.33;1.23;;;;;;;;;;5113382;27;20058;-64
2022/07/23 11:41:52;;;;;;;4.53;1.40;;;;;;;;;;5110778;28;20513;-65
2022/07/23 11:44:25;;;;;;;2.15;1.20;;;;;;;;;;5113144;27;20143;-64
2022/07/23 11:46:58;;;;;;;3.40;1.20;;;;;;;;;;5109677;28;20488;-67
2022/07/23 11:49:25;;;;;;;1.48;1.33;;;;;;;;;;5112391;28;20503;-65
2022/07/23 11:52:05;;;;;;;2.35;1.38;;;;;;;;;;5114331;27;20143;-66
2022/07/23 11:54:34;;;;;;;2.75;1.40;;;;;;;;;;5112105;27;20048;-64
2022/07/23 11:57:05;;;;;;;3.10;1.47;;;;;;;;;;5119538;27;20062;-65
2022/07/23 11:59:32;;;;;;;3.85;1.67;;;;;;;;;;5112876;27;20052;-65
2022/07/23 12:01:59;;;;;;;1.45;1.25;;;;;;;;;;5111882;27;20121;-65
2022/07/23 12:04:46;;;;;;;4.70;1.75;;;;;;;;;;5109461;28;20130;-66
2022/07/23 12:07:44;;;;;;;1.20;1.10;;;;;;;;;;5111443;27;20044;-65
2022/07/23 12:10:14;;;;;;;2.47;1.50;;;;;;;;;;5104376;28;20058;-65
2022/07/23 12:12:45;;;;;;;2.10;1.30;;;;;;;;;;5112560;27;20083;-65
2022/07/23 12:15:13;;;;;;;5.45;1.75;;;;;;;;;;5111630;28;20270;-66
2022/07/23 12:17:40;;;;;;;2.20;1.25;;;;;;;;;;5111262;27;20052;-65
2022/07/23 12:20:08;;;;;;;3.03;1.17;;;;;;;;;;5105573;27;20055;-66
2022/07/23 12:22:36;;;;;;;3.63;1.60;;;;;;;;;;5110510;28;20480;-67
2022/07/23 12:25:13;;;;;;;2.83;2.50;;;;;;;;;;5109939;27;20054;-65
2022/07/23 12:27:39;;;;;;;3.20;1.58;;;;;;;;;;5108307;28;20152;-65
2022/07/23 12:30:35;;;;;;;2.25;1.38;;;;;;;;;;5105534;27;22219;-66
2022/07/23 12:33:03;;;;;;;1.35;1.10;;;;;;;;;;5091303;27;21200;-64
2022/07/23 12:35:31;;;;;;;1.30;1.20;;;;;;;;;;5104387;27;20056;-65
2022/07/23 12:38:00;;;;;;;3.97;1.40;;;;;;;;;;5112944;28;20055;-64
2022/07/23 12:40:28;;;;;;;4.10;1.38;;;;;;;;;;5107595;28;20048;-64
2022/07/23 12:43:00;;;;;;;2.17;1.40;;;;;;;;;;5112794;27;20144;-65
2022/07/23 12:45:28;;;;;;;2.42;1.38;;;;;;;;;;5112146;27;20147;-65
2022/07/23 12:47:58;;;;;;;2.53;1.63;;;;;;;;;;5108810;28;20048;-64
2022/07/23 12:50:53;;;;;;;4.57;1.85;;;;;;;;;;5110617;27;20187;-64
2022/07/23 12:53:24;;;;;;;3.80;1.45;;;;;;;;;;5102146;28;20063;-65
2022/07/23 12:55:58;;;;;;;2.80;1.35;;;;;;;;;;5111723;27;20052;-65
2022/07/23 12:58:50;;;;;;;4.13;1.45;;;;;;;;;;5111301;27;20647;-65
2022/07/23 13:01:49;;;;;;;2.72;1.50;;;;;;;;;;5108933;28;20446;-65
2022/07/23 13:04:20;;;;;;;1.77;1.40;;;;;;;;;;5105372;27;20143;-64
2022/07/23 13:06:47;;;;;;;2.47;1.52;;;;;;;;;;5107882;27;20252;-64
2022/07/23 13:09:17;;;;;;;2.40;1.60;;;;;;;;;;5119532;27;20105;-64
2022/07/23 13:11:45;;;;;;;3.03;1.45;;;;;;;;;;5097984;27;20423;-64
2022/07/23 13:14:13;;;;;;;2.03;0.95;;;;;;;;;;5097382;28;20071;-65
2022/07/23 13:16:40;;;;;;;2.17;1.50;;;;;;;;;;5110145;27;20495;-64
2022/07/23 13:19:07;;;;;;;3.05;1.38;;;;;;;;;;5110519;28;20055;-64
2022/07/23 13:21:37;;;;;;;3.38;1.80;;;;;;;;;;5118170;27;20052;-66
2022/07/23 13:24:04;;;;;;;2.08;1.30;;;;;;;;;;5113715;27;20063;-65
2022/07/23 13:26:34;;;;;;;1.73;1.17;;;;;;;;;;5108202;27;20106;-65
2022/07/23 13:29:02;;;;;;;3.03;1.52;;;;;;;;;;5110365;27;20071;-65
2022/07/23 13:31:29;;;;;;;2.40;1.60;;;;;;;;;;5116032;27;20488;-65
2022/07/23 13:33:55;;;;;;;3.25;1.40;;;;;;;;;;5096902;27;20147;-65
2022/07/23 13:36:22;;;;;;;3.03;1.73;;;;;;;;;;5108936;27;20213;-65
2022/07/23 13:38:48;;;;;;;2.50;1.55;;;;;;;;;;5111512;27;20059;-66
2022/07/23 13:41:16;;;;;;;4.18;1.67;;;;;;;;;;5111264;27;20130;-65
2022/07/23 13:43:44;;;;;;;1.88;1.10;;;;;;;;;;5103322;28;20102;-66
2022/07/23 13:46:12;;;;;;;2.45;1.40;;;;;;;;;;5112305;28;20484;-66
2022/07/23 13:48:39;;;;;;;3.38;1.40;;;;;;;;;;5110593;27;20559;-65
2022/07/23 13:51:07;;;;;;;3.20;1.73;;;;;;;;;;5108548;28;20135;-66
2022/07/23 13:53:36;;;;;;;3.47;1.70;;;;;;;;;;5112110;27;20134;-65
2022/07/23 13:56:02;;;;;;;2.95;1.42;;;;;;;;;;5105476;28;20561;-66
2022/07/23 13:58:29;;;;;;;1.83;1.38;;;;;;;;;;5112050;28;20052;-67
2022/07/23 14:00:56;;;;;;;7.10;1.65;;;;;;;;;;5111510;28;20057;-67
2022/07/23 14:03:23;;;;;;;2.17;1.65;;;;;;;;;;5103056;27;20074;-66
2022/07/23 14:05:52;;;;;;;3.85;2.08;;;;;;;;;;5110988;27;20052;-66
2022/07/23 14:08:22;;;;;;;3.80;1.73;;;;;;;;;;5103376;27;20132;-66
2022/07/23 14:10:49;;;;;;;2.08;1.75;;;;;;;;;;5104677;27;20780;-66
2022/07/23 14:13:15;;;;;;;3.17;1.60;;;;;;;;;;5106390;28;20492;-66
2022/07/23 14:15:42;;;;;;;1.85;1.50;;;;;;;;;;5116640;27;20048;-65
2022/07/23 14:18:08;;;;;;;2.15;1.42;;;;;;;;;;5111017;27;20542;-66
2022/07/23 14:20:34;;;;;;;2.28;1.48;;;;;;;;;;5105866;27;20056;-69
2022/07/23 14:23:01;;;;;;;4.43;1.63;;;;;;;;;;5101035;28;20048;-67
2022/07/23 14:25:31;;;;;;;6.20;1.80;;;;;;;;;;5099059;28;20569;-66
2022/07/23 14:27:57;;;;;;;1.58;1.30;;;;;;;;;;5111201;28;20171;-69
2022/07/23 14:30:24;;;;;;;3.70;1.60;;;;;;;;;;5097749;28;20063;-67
2022/07/23 14:32:57;;;;;;;1.63;1.52;;;;;;;;;;5107062;28;20052;-66
2022/07/23 14:35:23;;;;;;;3.88;1.85;;;;;;;;;;5109598;27;20131;-67
2022/07/23 14:37:50;;;;;;;4.35;1.70;;;;;;;;;;5092707;28;20060;-69
2022/07/23 14:40:16;;;;;;;2.88;1.80;;;;;;;;;;5110522;28;20052;-67
2022/07/23 14:42:43;;;;;;;2.50;1.50;;;;;;;;;;5098659;28;20056;-68
2022/07/23 14:45:09;;;;;;;4.30;1.50;;;;;;;;;;5099064;28;20052;-68
2022/07/23 14:47:36;;;;;;;1.65;1.20;;;;;;;;;;5111537;28;20060;-67
2022/07/23 14:50:05;;;;;;;2.42;1.70;;;;;;;;;;5107399;27;20118;-66
2022/07/23 14:52:31;;;;;;;2.00;1.80;;;;;;;;;;5111233;27;20143;-68
2022/07/23 14:54:58;;;;;;;5.25;1.73;;;;;;;;;;5112145;28;20451;-68
2022/07/23 14:57:24;;;;;;;2.10;1.92;;;;;;;;;;5113124;28;20127;-68